sensor_id;sensor_type;location;lat;lon;timestamp;P1;durP1;ratioP1;P2;durP2;ratioP2
29466;SDS011;60968;37.490;-122.288;2023-04-24T00:01:10;5.00;;;1.07;;
29466;SDS011;60968;37.490;-122.288;2023-04-24T00:04:11;4.47;;;1.20;;
29466;SDS011;60968;37.490;-122.288;2023-04-24T00:07:12;4.50;;;0.90;;
29466;SDS011;60968;37.490;-122.288;2023-04-24T00:10:12;4.43;;;1.30;;
29466;SDS011;60968;37.490;-122.288;2023-04-24T00:13:15;3.47;;;1.10;;
29466;SDS011;60968;37.490;-122.288;2023-04-24T00:16:15;6.23;;;1.40;;
29466;SDS011;60968;37.490;-122.288;2023-04-24T00:19:16;5.33;;;1.30;;
29466;SDS011;60968;37.490;-122.288;2023-04-24T00:22:17;5.53;;;1.10;;
29466;SDS011;60968;37.490;-122.288;2023-04-24T00:25:19;4.40;;;1.23;;
29466;SDS011;60968;37.490;-122.288;2023-04-24T00:28:27;5.10;;;1.40;;
29466;SDS011;60968;37.490;-122.288;2023-04-24T00:31:28;9.03;;;1.33;;
29466;SDS011;60968;37.490;-122.288;2023-04-24T00:34:29;6.23;;;1.40;;
29466;SDS011;60968;37.490;-122.288;2023-04-24T00:37:30;4.97;;;1.20;;
29466;SDS011;60968;37.490;-122.288;2023-04-24T00:40:31;5.30;;;1.10;;
29466;SDS011;60968;37.490;-122.288;2023-04-24T00:43:32;8.10;;;1.50;;
29466;SDS011;60968;37.490;-122.288;2023-04-24T00:46:34;5.23;;;1.17;;
29466;SDS011;60968;37.490;-122.288;2023-04-24T00:49:35;5.77;;;1.40;;
29466;SDS011;60968;37.490;-122.288;2023-04-24T00:52:36;5.03;;;1.20;;
29466;SDS011;60968;37.490;-122.288;2023-04-24T00:55:37;4.53;;;1.07;;
29466;SDS011;60968;37.490;-122.288;2023-04-24T00:58:38;15.53;;;3.00;;
29466;SDS011;60968;37.490;-122.288;2023-04-24T01:01:42;33.20;;;6.43;;
29466;SDS011;60968;37.490;-122.288;2023-04-24T01:04:45;6.47;;;1.37;;
29466;SDS011;60968;37.490;-122.288;2023-04-24T01:07:49;7.13;;;1.20;;
29466;SDS011;60968;37.490;-122.288;2023-04-24T01:10:53;5.70;;;1.13;;
29466;SDS011;60968;37.490;-122.288;2023-04-24T01:13:55;3.37;;;1.13;;
29466;SDS011;60968;37.490;-122.288;2023-04-24T01:16:57;6.03;;;1.50;;
29466;SDS011;60968;37.490;-122.288;2023-04-24T01:20:01;4.77;;;1.30;;
29466;SDS011;60968;37.490;-122.288;2023-04-24T01:23:03;9.70;;;1.87;;
29466;SDS011;60968;37.490;-122.288;2023-04-24T01:26:06;10.60;;;2.13;;
29466;SDS011;60968;37.490;-122.288;2023-04-24T01:29:08;5.70;;;1.60;;
29466;SDS011;60968;37.490;-122.288;2023-04-24T01:32:13;8.33;;;2.00;;
29466;SDS011;60968;37.490;-122.288;2023-04-24T01:35:15;12.63;;;2.30;;
29466;SDS011;60968;37.490;-122.288;2023-04-24T01:38:15;10.87;;;2.07;;
29466;SDS011;60968;37.490;-122.288;2023-04-24T01:41:17;8.10;;;1.90;;
29466;SDS011;60968;37.490;-122.288;2023-04-24T01:44:19;13.50;;;2.60;;
29466;SDS011;60968;37.490;-122.288;2023-04-24T01:47:20;11.43;;;1.97;;
29466;SDS011;60968;37.490;-122.288;2023-04-24T01:50:22;13.67;;;2.20;;
29466;SDS011;60968;37.490;-122.288;2023-04-24T01:53:25;14.23;;;2.63;;
29466;SDS011;60968;37.490;-122.288;2023-04-24T01:56:31;9.87;;;2.30;;
29466;SDS011;60968;37.490;-122.288;2023-04-24T01:59:34;17.57;;;2.67;;
29466;SDS011;60968;37.490;-122.288;2023-04-24T02:02:35;10.17;;;2.17;;
29466;SDS011;60968;37.490;-122.288;2023-04-24T02:05:37;12.50;;;2.50;;
29466;SDS011;60968;37.490;-122.288;2023-04-24T02:08:39;11.23;;;2.20;;
29466;SDS011;60968;37.490;-122.288;2023-04-24T02:11:40;14.30;;;2.50;;
29466;SDS011;60968;37.490;-122.288;2023-04-24T02:14:43;8.90;;;1.90;;
29466;SDS011;60968;37.490;-122.288;2023-04-24T02:17:46;14.63;;;2.67;;
29466;SDS011;60968;37.490;-122.288;2023-04-24T02:20:47;11.07;;;2.30;;
29466;SDS011;60968;37.490;-122.288;2023-04-24T02:23:48;15.87;;;3.60;;
29466;SDS011;60968;37.490;-122.288;2023-04-24T02:26:49;16.17;;;2.50;;
29466;SDS011;60968;37.490;-122.288;2023-04-24T02:29:50;18.27;;;2.93;;
29466;SDS011;60968;37.490;-122.288;2023-04-24T02:32:52;23.30;;;2.60;;
29466;SDS011;60968;37.490;-122.288;2023-04-24T02:35:53;14.20;;;3.40;;
29466;SDS011;60968;37.490;-122.288;2023-04-24T02:38:54;18.87;;;3.13;;
29466;SDS011;60968;37.490;-122.288;2023-04-24T02:42:00;17.57;;;3.13;;
29466;SDS011;60968;37.490;-122.288;2023-04-24T02:45:01;21.77;;;3.60;;
29466;SDS011;60968;37.490;-122.288;2023-04-24T02:48:02;16.97;;;3.20;;
29466;SDS011;60968;37.490;-122.288;2023-04-24T02:51:03;18.47;;;3.40;;
29466;SDS011;60968;37.490;-122.288;2023-04-24T02:54:10;14.90;;;3.07;;
29466;SDS011;60968;37.490;-122.288;2023-04-24T02:57:11;25.40;;;3.43;;
29466;SDS011;60968;37.490;-122.288;2023-04-24T03:00:12;26.50;;;4.40;;
29466;SDS011;60968;37.490;-122.288;2023-04-24T03:03:13;20.80;;;3.33;;
29466;SDS011;60968;37.490;-122.288;2023-04-24T03:06:14;29.17;;;4.00;;
29466;SDS011;60968;37.490;-122.288;2023-04-24T03:09:16;19.23;;;3.03;;
29466;SDS011;60968;37.490;-122.288;2023-04-24T03:12:17;30.40;;;4.27;;
29466;SDS011;60968;37.490;-122.288;2023-04-24T03:15:18;33.37;;;3.77;;
29466;SDS011;60968;37.490;-122.288;2023-04-24T03:18:19;19.60;;;3.37;;
29466;SDS011;60968;37.490;-122.288;2023-04-24T03:21:20;20.30;;;4.20;;
29466;SDS011;60968;37.490;-122.288;2023-04-24T03:24:21;25.90;;;4.33;;
29466;SDS011;60968;37.490;-122.288;2023-04-24T03:27:22;19.37;;;3.63;;
29466;SDS011;60968;37.490;-122.288;2023-04-24T03:30:23;19.47;;;3.37;;
29466;SDS011;60968;37.490;-122.288;2023-04-24T03:33:24;24.50;;;3.97;;
29466;SDS011;60968;37.490;-122.288;2023-04-24T03:36:25;27.90;;;4.17;;
29466;SDS011;60968;37.490;-122.288;2023-04-24T03:39:26;23.33;;;4.40;;
29466;SDS011;60968;37.490;-122.288;2023-04-24T03:42:27;27.13;;;4.77;;
29466;SDS011;60968;37.490;-122.288;2023-04-24T03:45:29;23.13;;;4.70;;
29466;SDS011;60968;37.490;-122.288;2023-04-24T03:48:30;36.53;;;5.13;;
29466;SDS011;60968;37.490;-122.288;2023-04-24T03:51:31;26.50;;;4.53;;
29466;SDS011;60968;37.490;-122.288;2023-04-24T03:54:36;16.97;;;3.37;;
29466;SDS011;60968;37.490;-122.288;2023-04-24T03:57:37;28.90;;;4.57;;
29466;SDS011;60968;37.490;-122.288;2023-04-24T04:00:38;24.83;;;4.57;;
29466;SDS011;60968;37.490;-122.288;2023-04-24T04:03:39;22.50;;;5.13;;
29466;SDS011;60968;37.490;-122.288;2023-04-24T04:06:40;31.07;;;4.70;;
29466;SDS011;60968;37.490;-122.288;2023-04-24T04:09:42;23.77;;;4.17;;
29466;SDS011;60968;37.490;-122.288;2023-04-24T04:12:44;41.83;;;5.63;;
29466;SDS011;60968;37.490;-122.288;2023-04-24T04:15:45;28.67;;;5.13;;
29466;SDS011;60968;37.490;-122.288;2023-04-24T04:18:46;28.37;;;4.63;;
29466;SDS011;60968;37.490;-122.288;2023-04-24T04:21:47;28.03;;;4.83;;
29466;SDS011;60968;37.490;-122.288;2023-04-24T04:24:49;27.33;;;5.27;;
29466;SDS011;60968;37.490;-122.288;2023-04-24T04:27:50;28.40;;;4.20;;
29466;SDS011;60968;37.490;-122.288;2023-04-24T04:30:51;28.60;;;4.67;;
29466;SDS011;60968;37.490;-122.288;2023-04-24T04:33:52;30.20;;;4.87;;
29466;SDS011;60968;37.490;-122.288;2023-04-24T04:36:53;24.47;;;5.43;;
29466;SDS011;60968;37.490;-122.288;2023-04-24T04:39:55;28.27;;;6.13;;
29466;SDS011;60968;37.490;-122.288;2023-04-24T04:42:55;41.37;;;5.47;;
29466;SDS011;60968;37.490;-122.288;2023-04-24T04:45:57;26.27;;;4.87;;
29466;SDS011;60968;37.490;-122.288;2023-04-24T04:48:59;34.53;;;5.50;;
29466;SDS011;60968;37.490;-122.288;2023-04-24T04:52:03;38.33;;;5.13;;
29466;SDS011;60968;37.490;-122.288;2023-04-24T04:55:04;39.53;;;5.43;;
29466;SDS011;60968;37.490;-122.288;2023-04-24T04:58:05;27.53;;;4.87;;
29466;SDS011;60968;37.490;-122.288;2023-04-24T05:01:07;24.37;;;4.37;;
29466;SDS011;60968;37.490;-122.288;2023-04-24T05:04:08;25.77;;;4.70;;
29466;SDS011;60968;37.490;-122.288;2023-04-24T05:07:09;23.10;;;4.33;;
29466;SDS011;60968;37.490;-122.288;2023-04-24T05:10:10;21.40;;;4.50;;
29466;SDS011;60968;37.490;-122.288;2023-04-24T05:13:11;23.30;;;4.17;;
29466;SDS011;60968;37.490;-122.288;2023-04-24T05:16:12;27.43;;;4.43;;
29466;SDS011;60968;37.490;-122.288;2023-04-24T05:19:13;25.40;;;4.37;;
29466;SDS011;60968;37.490;-122.288;2023-04-24T05:22:14;28.40;;;5.10;;
29466;SDS011;60968;37.490;-122.288;2023-04-24T05:25:15;26.57;;;5.23;;
29466;SDS011;60968;37.490;-122.288;2023-04-24T05:28:16;26.20;;;5.30;;
29466;SDS011;60968;37.490;-122.288;2023-04-24T05:31:16;21.97;;;3.30;;
29466;SDS011;60968;37.490;-122.288;2023-04-24T05:34:17;22.67;;;3.80;;
29466;SDS011;60968;37.490;-122.288;2023-04-24T05:37:18;27.50;;;4.87;;
29466;SDS011;60968;37.490;-122.288;2023-04-24T05:40:19;27.30;;;3.87;;
29466;SDS011;60968;37.490;-122.288;2023-04-24T05:43:21;21.77;;;4.40;;
29466;SDS011;60968;37.490;-122.288;2023-04-24T05:46:22;22.03;;;4.23;;
29466;SDS011;60968;37.490;-122.288;2023-04-24T05:49:23;24.80;;;4.30;;
29466;SDS011;60968;37.490;-122.288;2023-04-24T05:52:24;24.70;;;4.13;;
29466;SDS011;60968;37.490;-122.288;2023-04-24T05:55:26;24.90;;;4.83;;
29466;SDS011;60968;37.490;-122.288;2023-04-24T05:58:27;23.13;;;3.70;;
29466;SDS011;60968;37.490;-122.288;2023-04-24T06:01:28;19.50;;;4.17;;
29466;SDS011;60968;37.490;-122.288;2023-04-24T06:04:30;17.20;;;3.60;;
29466;SDS011;60968;37.490;-122.288;2023-04-24T06:07:32;26.70;;;4.20;;
29466;SDS011;60968;37.490;-122.288;2023-04-24T06:10:35;15.23;;;3.43;;
29466;SDS011;60968;37.490;-122.288;2023-04-24T06:13:36;21.07;;;4.13;;
29466;SDS011;60968;37.490;-122.288;2023-04-24T06:16:37;30.93;;;4.73;;
29466;SDS011;60968;37.490;-122.288;2023-04-24T06:19:40;19.50;;;3.40;;
29466;SDS011;60968;37.490;-122.288;2023-04-24T06:22:41;24.87;;;3.57;;
29466;SDS011;60968;37.490;-122.288;2023-04-24T06:25:42;25.80;;;4.50;;
29466;SDS011;60968;37.490;-122.288;2023-04-24T06:28:43;24.90;;;4.60;;
29466;SDS011;60968;37.490;-122.288;2023-04-24T06:31:44;22.50;;;4.37;;
29466;SDS011;60968;37.490;-122.288;2023-04-24T06:34:44;25.23;;;4.53;;
29466;SDS011;60968;37.490;-122.288;2023-04-24T06:37:45;26.13;;;4.87;;
29466;SDS011;60968;37.490;-122.288;2023-04-24T06:40:46;25.87;;;4.37;;
29466;SDS011;60968;37.490;-122.288;2023-04-24T06:43:47;25.63;;;3.73;;
29466;SDS011;60968;37.490;-122.288;2023-04-24T06:46:49;16.43;;;3.47;;
29466;SDS011;60968;37.490;-122.288;2023-04-24T06:49:51;22.67;;;3.57;;
29466;SDS011;60968;37.490;-122.288;2023-04-24T06:52:53;22.50;;;3.70;;
29466;SDS011;60968;37.490;-122.288;2023-04-24T06:55:54;24.20;;;3.70;;
29466;SDS011;60968;37.490;-122.288;2023-04-24T06:58:56;19.33;;;3.13;;
29466;SDS011;60968;37.490;-122.288;2023-04-24T07:01:58;17.90;;;3.90;;
29466;SDS011;60968;37.490;-122.288;2023-04-24T07:04:59;21.23;;;4.20;;
29466;SDS011;60968;37.490;-122.288;2023-04-24T07:08:00;23.50;;;4.07;;
29466;SDS011;60968;37.490;-122.288;2023-04-24T07:11:01;20.97;;;4.07;;
29466;SDS011;60968;37.490;-122.288;2023-04-24T07:14:03;30.87;;;4.97;;
29466;SDS011;60968;37.490;-122.288;2023-04-24T07:17:04;25.30;;;3.80;;
29466;SDS011;60968;37.490;-122.288;2023-04-24T07:20:05;27.20;;;4.30;;
29466;SDS011;60968;37.490;-122.288;2023-04-24T07:23:07;21.47;;;4.00;;
29466;SDS011;60968;37.490;-122.288;2023-04-24T07:26:11;29.53;;;4.57;;
29466;SDS011;60968;37.490;-122.288;2023-04-24T07:29:14;25.90;;;4.03;;
29466;SDS011;60968;37.490;-122.288;2023-04-24T07:32:16;19.63;;;3.90;;
29466;SDS011;60968;37.490;-122.288;2023-04-24T07:35:17;18.67;;;3.33;;
29466;SDS011;60968;37.490;-122.288;2023-04-24T07:38:18;17.40;;;2.80;;
29466;SDS011;60968;37.490;-122.288;2023-04-24T07:41:19;20.73;;;3.63;;
29466;SDS011;60968;37.490;-122.288;2023-04-24T07:44:20;17.10;;;3.27;;
29466;SDS011;60968;37.490;-122.288;2023-04-24T07:51:18;17.57;;;2.97;;
29466;SDS011;60968;37.490;-122.288;2023-04-24T07:54:18;23.07;;;3.50;;
29466;SDS011;60968;37.490;-122.288;2023-04-24T07:57:21;19.33;;;3.47;;
29466;SDS011;60968;37.490;-122.288;2023-04-24T08:00:23;16.40;;;3.43;;
29466;SDS011;60968;37.490;-122.288;2023-04-24T08:03:24;25.30;;;4.00;;
29466;SDS011;60968;37.490;-122.288;2023-04-24T08:06:25;15.57;;;3.10;;
29466;SDS011;60968;37.490;-122.288;2023-04-24T08:09:27;22.47;;;3.80;;
29466;SDS011;60968;37.490;-122.288;2023-04-24T08:12:29;13.77;;;3.00;;
29466;SDS011;60968;37.490;-122.288;2023-04-24T08:15:30;22.47;;;3.93;;
29466;SDS011;60968;37.490;-122.288;2023-04-24T08:18:32;14.60;;;3.77;;
29466;SDS011;60968;37.490;-122.288;2023-04-24T08:21:33;20.77;;;3.40;;
29466;SDS011;60968;37.490;-122.288;2023-04-24T08:24:35;24.03;;;4.23;;
29466;SDS011;60968;37.490;-122.288;2023-04-24T08:27:39;18.03;;;3.37;;
29466;SDS011;60968;37.490;-122.288;2023-04-24T08:30:40;17.77;;;3.33;;
29466;SDS011;60968;37.490;-122.288;2023-04-24T08:33:43;26.20;;;4.60;;
29466;SDS011;60968;37.490;-122.288;2023-04-24T08:36:45;20.27;;;4.20;;
29466;SDS011;60968;37.490;-122.288;2023-04-24T08:39:46;14.67;;;3.57;;
29466;SDS011;60968;37.490;-122.288;2023-04-24T08:42:47;19.63;;;3.67;;
29466;SDS011;60968;37.490;-122.288;2023-04-24T08:45:50;17.87;;;3.60;;
29466;SDS011;60968;37.490;-122.288;2023-04-24T08:48:52;19.37;;;4.30;;
29466;SDS011;60968;37.490;-122.288;2023-04-24T08:51:53;18.47;;;3.37;;
29466;SDS011;60968;37.490;-122.288;2023-04-24T08:54:54;19.47;;;3.77;;
29466;SDS011;60968;37.490;-122.288;2023-04-24T08:57:59;17.73;;;3.43;;
29466;SDS011;60968;37.490;-122.288;2023-04-24T09:01:01;21.23;;;3.30;;
29466;SDS011;60968;37.490;-122.288;2023-04-24T09:04:03;19.10;;;3.10;;
29466;SDS011;60968;37.490;-122.288;2023-04-24T09:07:04;18.57;;;3.67;;
29466;SDS011;60968;37.490;-122.288;2023-04-24T09:10:10;20.43;;;4.37;;
29466;SDS011;60968;37.490;-122.288;2023-04-24T09:13:13;20.40;;;4.03;;
29466;SDS011;60968;37.490;-122.288;2023-04-24T09:16:16;18.50;;;3.20;;
29466;SDS011;60968;37.490;-122.288;2023-04-24T09:19:19;20.23;;;3.80;;
29466;SDS011;60968;37.490;-122.288;2023-04-24T09:22:20;17.17;;;3.83;;
29466;SDS011;60968;37.490;-122.288;2023-04-24T09:25:25;17.07;;;3.87;;
29466;SDS011;60968;37.490;-122.288;2023-04-24T09:28:36;22.53;;;4.60;;
29466;SDS011;60968;37.490;-122.288;2023-04-24T09:31:38;20.27;;;3.90;;
29466;SDS011;60968;37.490;-122.288;2023-04-24T09:38:19;22.63;;;4.07;;
29466;SDS011;60968;37.490;-122.288;2023-04-24T09:41:32;33.27;;;4.97;;
29466;SDS011;60968;37.490;-122.288;2023-04-24T09:44:34;19.67;;;4.13;;
29466;SDS011;60968;37.490;-122.288;2023-04-24T09:47:38;21.67;;;4.70;;
29466;SDS011;60968;37.490;-122.288;2023-04-24T09:50:40;23.03;;;4.87;;
29466;SDS011;60968;37.490;-122.288;2023-04-24T09:53:46;33.37;;;5.63;;
29466;SDS011;60968;37.490;-122.288;2023-04-24T09:56:50;21.83;;;4.23;;
29466;SDS011;60968;37.490;-122.288;2023-04-24T09:59:52;26.20;;;5.40;;
29466;SDS011;60968;37.490;-122.288;2023-04-24T10:02:55;25.27;;;5.10;;
29466;SDS011;60968;37.490;-122.288;2023-04-24T10:06:00;28.10;;;5.83;;
29466;SDS011;60968;37.490;-122.288;2023-04-24T10:09:02;23.17;;;4.83;;
29466;SDS011;60968;37.490;-122.288;2023-04-24T10:12:03;23.60;;;5.20;;
29466;SDS011;60968;37.490;-122.288;2023-04-24T10:15:06;25.80;;;4.67;;
29466;SDS011;60968;37.490;-122.288;2023-04-24T10:18:11;16.87;;;4.37;;
29466;SDS011;60968;37.490;-122.288;2023-04-24T10:21:12;22.37;;;4.53;;
29466;SDS011;60968;37.490;-122.288;2023-04-24T10:24:18;26.50;;;5.23;;
29466;SDS011;60968;37.490;-122.288;2023-04-24T10:27:20;26.33;;;5.33;;
29466;SDS011;60968;37.490;-122.288;2023-04-24T10:30:23;24.67;;;5.47;;
29466;SDS011;60968;37.490;-122.288;2023-04-24T10:33:25;26.40;;;5.27;;
29466;SDS011;60968;37.490;-122.288;2023-04-24T10:36:28;34.03;;;5.67;;
29466;SDS011;60968;37.490;-122.288;2023-04-24T10:39:32;32.70;;;5.83;;
29466;SDS011;60968;37.490;-122.288;2023-04-24T10:42:39;31.07;;;6.10;;
29466;SDS011;60968;37.490;-122.288;2023-04-24T10:45:59;24.60;;;4.93;;
29466;SDS011;60968;37.490;-122.288;2023-04-24T10:49:06;25.43;;;5.00;;
29466;SDS011;60968;37.490;-122.288;2023-04-24T10:52:08;25.40;;;4.90;;
29466;SDS011;60968;37.490;-122.288;2023-04-24T10:55:10;30.70;;;5.20;;
29466;SDS011;60968;37.490;-122.288;2023-04-24T10:58:14;32.77;;;4.70;;
29466;SDS011;60968;37.490;-122.288;2023-04-24T11:01:27;23.93;;;5.60;;
29466;SDS011;60968;37.490;-122.288;2023-04-24T11:04:30;31.00;;;5.30;;
29466;SDS011;60968;37.490;-122.288;2023-04-24T11:11:16;20.33;;;4.67;;
29466;SDS011;60968;37.490;-122.288;2023-04-24T11:14:18;15.37;;;4.03;;
29466;SDS011;60968;37.490;-122.288;2023-04-24T11:17:32;27.03;;;5.20;;
29466;SDS011;60968;37.490;-122.288;2023-04-24T11:20:38;22.07;;;4.40;;
29466;SDS011;60968;37.490;-122.288;2023-04-24T11:23:45;21.67;;;3.87;;
29466;SDS011;60968;37.490;-122.288;2023-04-24T11:26:46;15.23;;;3.80;;
29466;SDS011;60968;37.490;-122.288;2023-04-24T11:32:55;14.30;;;4.17;;
29466;SDS011;60968;37.490;-122.288;2023-04-24T11:36:04;20.00;;;3.60;;
29466;SDS011;60968;37.490;-122.288;2023-04-24T11:39:07;33.03;;;4.63;;
29466;SDS011;60968;37.490;-122.288;2023-04-24T11:42:09;19.30;;;3.80;;
29466;SDS011;60968;37.490;-122.288;2023-04-24T11:45:11;21.77;;;3.90;;
29466;SDS011;60968;37.490;-122.288;2023-04-24T11:48:19;20.87;;;4.03;;
29466;SDS011;60968;37.490;-122.288;2023-04-24T11:51:24;19.73;;;4.07;;
29466;SDS011;60968;37.490;-122.288;2023-04-24T11:54:27;17.07;;;3.80;;
29466;SDS011;60968;37.490;-122.288;2023-04-24T11:57:29;15.53;;;3.60;;
29466;SDS011;60968;37.490;-122.288;2023-04-24T12:00:31;23.43;;;4.77;;
29466;SDS011;60968;37.490;-122.288;2023-04-24T12:03:34;19.37;;;4.60;;
29466;SDS011;60968;37.490;-122.288;2023-04-24T12:06:36;27.60;;;4.30;;
29466;SDS011;60968;37.490;-122.288;2023-04-24T12:09:40;31.87;;;5.73;;
29466;SDS011;60968;37.490;-122.288;2023-04-24T12:13:00;30.83;;;4.37;;
29466;SDS011;60968;37.490;-122.288;2023-04-24T12:16:04;12.03;;;3.50;;
29466;SDS011;60968;37.490;-122.288;2023-04-24T12:19:05;17.00;;;3.93;;
29466;SDS011;60968;37.490;-122.288;2023-04-24T12:22:05;22.27;;;3.97;;
29466;SDS011;60968;37.490;-122.288;2023-04-24T12:25:09;21.90;;;4.33;;
29466;SDS011;60968;37.490;-122.288;2023-04-24T12:28:12;14.43;;;3.70;;
29466;SDS011;60968;37.490;-122.288;2023-04-24T12:31:17;16.20;;;3.30;;
29466;SDS011;60968;37.490;-122.288;2023-04-24T12:34:22;25.43;;;5.03;;
29466;SDS011;60968;37.490;-122.288;2023-04-24T12:37:24;12.00;;;3.97;;
29466;SDS011;60968;37.490;-122.288;2023-04-24T12:40:26;16.67;;;3.97;;
29466;SDS011;60968;37.490;-122.288;2023-04-24T12:43:30;19.10;;;5.17;;
29466;SDS011;60968;37.490;-122.288;2023-04-24T12:46:31;17.60;;;4.17;;
29466;SDS011;60968;37.490;-122.288;2023-04-24T12:49:35;17.73;;;3.93;;
29466;SDS011;60968;37.490;-122.288;2023-04-24T12:52:37;24.57;;;4.73;;
29466;SDS011;60968;37.490;-122.288;2023-04-24T12:55:39;19.53;;;4.27;;
29466;SDS011;60968;37.490;-122.288;2023-04-24T12:58:42;25.73;;;4.80;;
29466;SDS011;60968;37.490;-122.288;2023-04-24T13:01:42;26.63;;;4.57;;
29466;SDS011;60968;37.490;-122.288;2023-04-24T13:04:46;27.37;;;5.97;;
29466;SDS011;60968;37.490;-122.288;2023-04-24T13:07:49;28.93;;;4.90;;
29466;SDS011;60968;37.490;-122.288;2023-04-24T13:10:51;23.07;;;5.40;;
29466;SDS011;60968;37.490;-122.288;2023-04-24T13:13:52;33.23;;;5.60;;
29466;SDS011;60968;37.490;-122.288;2023-04-24T13:16:55;38.93;;;5.77;;
29466;SDS011;60968;37.490;-122.288;2023-04-24T13:19:55;25.27;;;5.70;;
29466;SDS011;60968;37.490;-122.288;2023-04-24T13:22:56;30.33;;;5.13;;
29466;SDS011;60968;37.490;-122.288;2023-04-24T13:25:57;28.83;;;5.03;;
29466;SDS011;60968;37.490;-122.288;2023-04-24T13:29:00;39.83;;;4.60;;
29466;SDS011;60968;37.490;-122.288;2023-04-24T13:32:02;33.83;;;5.63;;
29466;SDS011;60968;37.490;-122.288;2023-04-24T13:35:03;33.20;;;5.77;;
29466;SDS011;60968;37.490;-122.288;2023-04-24T13:38:06;20.60;;;4.70;;
29466;SDS011;60968;37.490;-122.288;2023-04-24T13:41:07;34.17;;;5.27;;
29466;SDS011;60968;37.490;-122.288;2023-04-24T13:44:08;30.57;;;5.50;;
29466;SDS011;60968;37.490;-122.288;2023-04-24T13:47:09;30.13;;;5.33;;
29466;SDS011;60968;37.490;-122.288;2023-04-24T13:50:10;29.10;;;5.33;;
29466;SDS011;60968;37.490;-122.288;2023-04-24T13:53:11;28.83;;;5.70;;
29466;SDS011;60968;37.490;-122.288;2023-04-24T13:56:15;36.07;;;6.57;;
29466;SDS011;60968;37.490;-122.288;2023-04-24T13:59:19;35.43;;;5.73;;
29466;SDS011;60968;37.490;-122.288;2023-04-24T14:02:20;31.93;;;6.03;;
29466;SDS011;60968;37.490;-122.288;2023-04-24T14:05:23;29.30;;;5.60;;
29466;SDS011;60968;37.490;-122.288;2023-04-24T14:08:24;29.17;;;5.30;;
29466;SDS011;60968;37.490;-122.288;2023-04-24T14:11:26;36.17;;;6.70;;
29466;SDS011;60968;37.490;-122.288;2023-04-24T14:14:28;28.83;;;5.93;;
29466;SDS011;60968;37.490;-122.288;2023-04-24T14:17:30;27.70;;;5.27;;
29466;SDS011;60968;37.490;-122.288;2023-04-24T14:20:31;25.90;;;5.70;;
29466;SDS011;60968;37.490;-122.288;2023-04-24T14:23:33;32.47;;;5.63;;
29466;SDS011;60968;37.490;-122.288;2023-04-24T14:26:34;31.77;;;5.43;;
29466;SDS011;60968;37.490;-122.288;2023-04-24T14:29:35;32.13;;;5.73;;
29466;SDS011;60968;37.490;-122.288;2023-04-24T14:32:37;17.00;;;5.13;;
29466;SDS011;60968;37.490;-122.288;2023-04-24T14:35:42;29.23;;;4.97;;
29466;SDS011;60968;37.490;-122.288;2023-04-24T14:38:44;26.27;;;5.50;;
29466;SDS011;60968;37.490;-122.288;2023-04-24T14:41:46;29.70;;;5.90;;
29466;SDS011;60968;37.490;-122.288;2023-04-24T14:44:48;29.50;;;6.30;;
29466;SDS011;60968;37.490;-122.288;2023-04-24T14:47:50;37.13;;;6.70;;
29466;SDS011;60968;37.490;-122.288;2023-04-24T14:50:54;32.97;;;6.53;;
29466;SDS011;60968;37.490;-122.288;2023-04-24T14:53:55;22.83;;;5.70;;
29466;SDS011;60968;37.490;-122.288;2023-04-24T14:56:56;28.57;;;5.50;;
29466;SDS011;60968;37.490;-122.288;2023-04-24T14:59:57;22.23;;;5.47;;
29466;SDS011;60968;37.490;-122.288;2023-04-24T15:03:00;25.73;;;5.93;;
29466;SDS011;60968;37.490;-122.288;2023-04-24T15:06:02;23.70;;;5.60;;
29466;SDS011;60968;37.490;-122.288;2023-04-24T15:09:03;24.83;;;5.73;;
29466;SDS011;60968;37.490;-122.288;2023-04-24T15:12:04;17.33;;;4.87;;
29466;SDS011;60968;37.490;-122.288;2023-04-24T15:15:05;17.73;;;4.80;;
29466;SDS011;60968;37.490;-122.288;2023-04-24T15:18:08;19.02;;;4.93;;
29466;SDS011;60968;37.490;-122.288;2023-04-24T15:21:10;26.08;;;6.20;;
29466;SDS011;60968;37.490;-122.288;2023-04-24T15:24:11;19.63;;;5.07;;
29466;SDS011;60968;37.490;-122.288;2023-04-24T15:27:12;21.65;;;5.28;;
29466;SDS011;60968;37.490;-122.288;2023-04-24T15:30:13;18.20;;;5.05;;
29466;SDS011;60968;37.490;-122.288;2023-04-24T15:33:14;22.70;;;5.40;;
29466;SDS011;60968;37.490;-122.288;2023-04-24T15:36:18;23.58;;;6.50;;
29466;SDS011;60968;37.490;-122.288;2023-04-24T15:39:23;13.52;;;4.47;;
29466;SDS011;60968;37.490;-122.288;2023-04-24T15:42:23;15.40;;;4.53;;
29466;SDS011;60968;37.490;-122.288;2023-04-24T15:45:26;18.00;;;5.50;;
29466;SDS011;60968;37.490;-122.288;2023-04-24T15:48:28;22.40;;;6.22;;
29466;SDS011;60968;37.490;-122.288;2023-04-24T15:51:29;17.60;;;4.88;;
29466;SDS011;60968;37.490;-122.288;2023-04-24T15:54:30;17.17;;;5.75;;
29466;SDS011;60968;37.490;-122.288;2023-04-24T15:57:32;15.25;;;5.35;;
29466;SDS011;60968;37.490;-122.288;2023-04-24T16:00:36;19.02;;;6.40;;
29466;SDS011;60968;37.490;-122.288;2023-04-24T16:03:39;15.65;;;5.35;;
29466;SDS011;60968;37.490;-122.288;2023-04-24T16:06:41;17.17;;;5.22;;
29466;SDS011;60968;37.490;-122.288;2023-04-24T16:09:42;16.48;;;5.18;;
29466;SDS011;60968;37.490;-122.288;2023-04-24T16:12:49;15.63;;;4.57;;
29466;SDS011;60968;37.490;-122.288;2023-04-24T16:15:50;12.60;;;4.47;;
29466;SDS011;60968;37.490;-122.288;2023-04-24T16:18:51;23.48;;;6.40;;
29466;SDS011;60968;37.490;-122.288;2023-04-24T16:21:52;29.83;;;7.65;;
29466;SDS011;60968;37.490;-122.288;2023-04-24T16:24:53;26.00;;;6.50;;
29466;SDS011;60968;37.490;-122.288;2023-04-24T16:27:55;22.15;;;6.70;;
29466;SDS011;60968;37.490;-122.288;2023-04-24T16:30:56;23.40;;;6.53;;
29466;SDS011;60968;37.490;-122.288;2023-04-24T16:33:58;23.10;;;5.88;;
29466;SDS011;60968;37.490;-122.288;2023-04-24T16:37:00;22.20;;;5.32;;
29466;SDS011;60968;37.490;-122.288;2023-04-24T16:40:01;19.92;;;5.88;;
29466;SDS011;60968;37.490;-122.288;2023-04-24T16:43:04;23.98;;;7.05;;
29466;SDS011;60968;37.490;-122.288;2023-04-24T16:46:04;20.73;;;6.05;;
29466;SDS011;60968;37.490;-122.288;2023-04-24T16:49:05;17.35;;;5.63;;
29466;SDS011;60968;37.490;-122.288;2023-04-24T16:52:06;25.27;;;5.53;;
29466;SDS011;60968;37.490;-122.288;2023-04-24T16:55:07;22.97;;;5.23;;
29466;SDS011;60968;37.490;-122.288;2023-04-24T16:58:10;21.03;;;5.13;;
29466;SDS011;60968;37.490;-122.288;2023-04-24T17:01:11;24.33;;;4.80;;
29466;SDS011;60968;37.490;-122.288;2023-04-24T17:04:13;22.17;;;4.73;;
29466;SDS011;60968;37.490;-122.288;2023-04-24T17:07:16;21.73;;;5.57;;
29466;SDS011;60968;37.490;-122.288;2023-04-24T17:10:18;20.53;;;5.13;;
29466;SDS011;60968;37.490;-122.288;2023-04-24T17:13:19;21.93;;;4.63;;
29466;SDS011;60968;37.490;-122.288;2023-04-24T17:16:20;20.60;;;5.07;;
29466;SDS011;60968;37.490;-122.288;2023-04-24T17:19:21;22.23;;;4.83;;
29466;SDS011;60968;37.490;-122.288;2023-04-24T17:22:22;17.70;;;4.63;;
29466;SDS011;60968;37.490;-122.288;2023-04-24T17:25:23;17.88;;;4.50;;
29466;SDS011;60968;37.490;-122.288;2023-04-24T17:28:25;17.10;;;4.95;;
29466;SDS011;60968;37.490;-122.288;2023-04-24T17:31:31;18.50;;;5.45;;